Time;durP1;ratioP1;P1;durP2;ratioP2;P2;SDS_P1;SDS_P2;PMS_P1;PMS_P2;Temp;Humidity;BMP_temperature;BMP_pressure;BME280_temperature;BME280_humidity;BME280_pressure;Samples;Min_cycle;Max_cycle;Signal;HPM_P1;HPM_P2
2023/08/19 00:00:49;;;;;;;4.93;4.60;;;19.90;99.90;;;;;;5088710;28;20445;-69
2023/08/19 00:03:16;;;;;;;5.90;4.73;;;19.90;99.90;;;;;;5088842;28;20471;-68
2023/08/19 00:05:43;;;;;;;5.17;4.77;;;19.90;99.90;;;;;;5088803;28;20417;-68
2023/08/19 00:08:10;;;;;;;7.43;4.97;;;19.90;99.90;;;;;;5088311;28;21020;-69
2023/08/19 00:10:38;;;;;;;5.83;5.30;;;19.80;99.90;;;;;;5088805;28;20496;-68
2023/08/19 00:13:05;;;;;;;8.97;6.23;;;19.80;99.90;;;;;;5088605;28;21083;-69
2023/08/19 00:15:32;;;;;;;6.97;6.33;;;19.80;99.90;;;;;;5088585;28;21387;-69
2023/08/19 00:18:00;;;;;;;5.33;4.60;;;19.70;99.90;;;;;;5086419;28;20461;-68
2023/08/19 00:20:28;;;;;;;5.53;5.10;;;19.70;99.90;;;;;;5088073;28;20443;-68
2023/08/19 00:22:56;;;;;;;5.67;5.00;;;19.70;99.90;;;;;;5088474;28;20482;-68
2023/08/19 00:25:22;;;;;;;5.30;4.90;;;19.70;99.90;;;;;;5089254;28;20457;-68
2023/08/19 00:27:51;;;;;;;5.93;5.43;;;19.70;99.90;;;;;;5088301;28;20536;-69
2023/08/19 00:30:18;;;;;;;5.90;5.13;;;19.70;99.90;;;;;;5089161;28;20453;-68
2023/08/19 00:32:45;;;;;;;5.70;5.23;;;19.70;99.90;;;;;;5088840;28;20487;-68
2023/08/19 00:35:12;;;;;;;6.50;6.00;;;19.60;99.90;;;;;;5089195;28;20518;-68
2023/08/19 00:37:38;;;;;;;5.87;5.30;;;19.70;99.90;;;;;;5088326;28;20454;-68
2023/08/19 00:40:07;;;;;;;5.20;4.80;;;19.60;99.90;;;;;;5089155;28;20529;-68
2023/08/19 00:42:33;;;;;;;5.87;5.37;;;19.60;99.90;;;;;;5088792;28;20909;-68
2023/08/19 00:45:02;;;;;;;5.87;5.37;;;19.60;99.90;;;;;;5088819;28;20442;-68
2023/08/19 00:47:29;;;;;;;6.30;5.80;;;19.60;99.90;;;;;;5087212;28;20944;-68
2023/08/19 00:49:56;;;;;;;6.40;5.80;;;19.50;99.90;;;;;;5088429;28;20447;-69
2023/08/19 00:52:23;;;;;;;5.63;5.13;;;19.50;99.90;;;;;;5088514;28;20554;-68
2023/08/19 00:54:51;;;;;;;7.20;6.60;;;19.50;99.90;;;;;;5088465;28;20578;-68
2023/08/19 00:57:18;;;;;;;5.90;5.30;;;19.50;99.90;;;;;;5087718;28;20455;-68
2023/08/19 00:59:45;;;;;;;8.13;5.80;;;19.50;99.90;;;;;;5088777;28;20450;-68
2023/08/19 01:02:13;;;;;;;8.63;6.50;;;19.40;99.90;;;;;;5088515;28;20834;-68
2023/08/19 01:04:40;;;;;;;6.93;6.33;;;19.40;99.90;;;;;;5088711;28;20458;-68
2023/08/19 01:07:14;;;;;;;6.33;5.83;;;19.40;99.90;;;;;;5087855;28;20479;-70
2023/08/19 01:09:49;;;;;;;5.80;5.40;;;19.40;99.90;;;;;;5088569;28;20481;-69
2023/08/19 01:12:24;;;;;;;6.17;5.70;;;19.40;99.90;;;;;;5088504;28;20464;-69
2023/08/19 01:15:00;;;;;;;6.40;5.90;;;19.30;99.90;;;;;;5088278;28;20484;-68
2023/08/19 01:17:30;;;;;;;6.53;6.03;;;19.30;99.90;;;;;;5085891;28;20962;-68
2023/08/19 01:19:58;;;;;;;6.67;6.17;;;19.30;99.90;;;;;;5088300;28;20447;-69
2023/08/19 01:22:34;;;;;;;6.73;6.23;;;19.30;99.90;;;;;;5088175;28;20554;-68
2023/08/19 01:25:02;;;;;;;6.40;5.90;;;19.30;99.90;;;;;;5088339;28;20526;-68
2023/08/19 01:27:29;;;;;;;6.00;5.50;;;19.30;99.90;;;;;;5087177;28;20541;-68
2023/08/19 01:29:56;;;;;;;5.97;5.37;;;19.20;99.90;;;;;;5087118;28;20456;-68
2023/08/19 01:32:24;;;;;;;6.70;6.20;;;19.20;99.90;;;;;;5087916;28;20488;-68
2023/08/19 01:34:53;;;;;;;6.47;5.97;;;19.10;99.90;;;;;;5086719;28;20448;-69
2023/08/19 01:37:27;;;;;;;6.70;6.20;;;19.10;99.90;;;;;;5087223;28;20443;-68
2023/08/19 01:39:55;;;;;;;5.47;5.07;;;19.10;99.90;;;;;;5067843;28;20448;-68
2023/08/19 01:42:25;;;;;;;6.70;6.00;;;19.10;99.90;;;;;;5067701;28;20484;-69
2023/08/19 01:44:54;;;;;;;6.37;5.87;;;19.10;99.90;;;;;;5068017;28;20532;-68
2023/08/19 01:47:21;;;;;;;6.10;5.70;;;19.10;99.90;;;;;;5080227;28;20449;-69
2023/08/19 01:49:48;;;;;;;6.50;6.00;;;19.00;99.90;;;;;;5076738;28;20453;-68
2023/08/19 01:52:16;;;;;;;7.80;7.00;;;19.00;99.90;;;;;;5067835;28;20550;-69
2023/08/19 01:54:42;;;;;;;5.77;5.30;;;19.00;99.90;;;;;;5067981;28;20539;-68
2023/08/19 01:57:09;;;;;;;6.30;5.80;;;18.90;99.90;;;;;;5066958;28;20493;-68
2023/08/19 01:59:37;;;;;;;6.93;6.30;;;18.90;99.90;;;;;;5067845;28;20974;-68
2023/08/19 02:02:04;;;;;;;6.93;6.30;;;18.90;99.90;;;;;;5067804;28;20840;-68
2023/08/19 02:04:31;;;;;;;6.50;5.90;;;18.90;99.90;;;;;;5067505;28;21003;-68
2023/08/19 02:06:58;;;;;;;7.03;6.43;;;18.90;99.90;;;;;;5066869;28;20449;-68
2023/08/19 02:09:25;;;;;;;7.03;6.43;;;18.90;99.90;;;;;;5067493;28;20469;-68
2023/08/19 02:11:52;;;;;;;9.20;6.60;;;18.90;99.90;;;;;;5067287;28;20925;-68
2023/08/19 02:14:19;;;;;;;6.27;5.77;;;18.90;99.90;;;;;;5073665;28;21026;-68
2023/08/19 02:16:47;;;;;;;6.70;6.30;;;18.80;99.90;;;;;;5084244;28;20513;-68
2023/08/19 02:19:14;;;;;;;6.23;5.77;;;18.80;99.90;;;;;;5066312;28;20487;-68
2023/08/19 02:21:40;;;;;;;5.87;5.43;;;18.80;99.90;;;;;;5066723;28;20838;-68
2023/08/19 02:24:08;;;;;;;6.50;6.00;;;18.80;99.90;;;;;;5067733;28;20451;-68
2023/08/19 02:26:35;;;;;;;6.87;6.27;;;18.80;99.90;;;;;;5066329;28;21034;-68
2023/08/19 02:29:03;;;;;;;6.87;6.37;;;18.80;99.90;;;;;;5067353;28;20456;-69
2023/08/19 02:31:30;;;;;;;6.57;6.07;;;18.80;99.90;;;;;;5066993;28;20493;-69
2023/08/19 02:33:58;;;;;;;7.97;7.27;;;18.80;99.90;;;;;;5067104;28;20486;-69
2023/08/19 02:36:25;;;;;;;7.40;6.70;;;18.80;99.90;;;;;;5066280;28;20487;-68
2023/08/19 02:38:51;;;;;;;7.30;6.60;;;18.80;99.90;;;;;;5067446;28;20822;-68
2023/08/19 02:41:18;;;;;;;7.30;6.23;;;18.70;99.90;;;;;;5067316;28;20447;-68
2023/08/19 02:43:45;;;;;;;7.67;6.60;;;18.70;99.90;;;;;;5084979;28;21055;-68
2023/08/19 02:46:12;;;;;;;7.60;6.90;;;18.70;99.90;;;;;;5070294;28;21422;-68
2023/08/19 02:48:39;;;;;;;7.30;6.10;;;18.70;99.90;;;;;;5070634;28;20453;-69
2023/08/19 02:51:07;;;;;;;7.80;7.20;;;18.60;99.90;;;;;;5071133;28;20449;-69
2023/08/19 02:53:34;;;;;;;7.63;6.93;;;18.60;99.90;;;;;;5070904;28;20466;-68
2023/08/19 02:56:01;;;;;;;5.70;5.30;;;18.60;99.90;;;;;;5069940;28;20864;-68
2023/08/19 02:58:29;;;;;;;7.63;7.00;;;18.60;99.90;;;;;;5070738;28;20832;-68
2023/08/19 03:00:55;;;;;;;7.10;6.13;;;18.60;99.90;;;;;;5070621;28;20448;-68
2023/08/19 03:03:22;;;;;;;6.97;6.37;;;18.60;99.90;;;;;;5070219;28;20471;-68
2023/08/19 03:05:49;;;;;;;7.10;6.60;;;18.60;99.90;;;;;;5070618;28;20450;-68
2023/08/19 03:08:17;;;;;;;7.13;6.57;;;18.60;99.90;;;;;;5070220;28;20444;-68
2023/08/19 03:10:44;;;;;;;8.20;7.43;;;18.60;99.90;;;;;;5070433;28;20530;-68
2023/08/19 03:13:11;;;;;;;7.33;6.67;;;18.60;99.90;;;;;;5070436;28;20864;-68
2023/08/19 03:15:38;;;;;;;7.60;6.90;;;18.50;99.90;;;;;;5070470;28;20487;-68
2023/08/19 03:18:06;;;;;;;6.70;6.07;;;18.50;99.90;;;;;;5068679;28;20951;-68
2023/08/19 03:20:34;;;;;;;9.13;6.63;;;18.50;99.90;;;;;;5070476;28;20534;-68
2023/08/19 03:23:01;;;;;;;7.10;6.50;;;18.50;99.90;;;;;;5070158;28;20550;-69
2023/08/19 03:25:29;;;;;;;8.60;8.00;;;18.50;99.90;;;;;;5070151;28;21204;-68
2023/08/19 03:27:56;;;;;;;7.17;6.67;;;18.50;99.90;;;;;;5067334;28;20446;-68
2023/08/19 03:30:23;;;;;;;7.20;6.53;;;18.50;99.90;;;;;;5069532;28;21187;-69
2023/08/19 03:32:50;;;;;;;7.57;6.97;;;18.50;99.90;;;;;;5069919;28;20846;-68
2023/08/19 03:35:17;;;;;;;7.33;6.70;;;18.40;99.90;;;;;;5069828;28;20453;-68
2023/08/19 03:37:44;;;;;;;8.07;7.27;;;18.40;99.90;;;;;;5069286;28;20451;-69
2023/08/19 03:40:11;;;;;;;7.30;6.60;;;18.40;99.90;;;;;;5069851;28;20939;-69
2023/08/19 03:42:39;;;;;;;7.20;6.60;;;18.40;99.90;;;;;;5069797;28;20558;-68
2023/08/19 03:45:07;;;;;;;8.20;7.50;;;18.40;99.90;;;;;;5069963;28;20431;-68
2023/08/19 03:47:34;;;;;;;7.37;6.87;;;18.40;99.90;;;;;;5069013;28;20601;-68
2023/08/19 03:50:01;;;;;;;7.70;7.10;;;18.40;99.90;;;;;;5069521;28;20541;-68
2023/08/19 03:52:27;;;;;;;7.30;6.73;;;18.40;99.90;;;;;;5069456;28;20558;-68
2023/08/19 03:54:54;;;;;;;6.87;6.27;;;18.40;99.90;;;;;;5068644;28;20810;-68
2023/08/19 03:57:21;;;;;;;7.70;7.00;;;18.40;99.90;;;;;;5068396;28;20487;-68
2023/08/19 03:59:51;;;;;;;7.50;6.80;;;18.30;99.90;;;;;;5069512;28;20940;-68
2023/08/19 04:02:18;;;;;;;10.10;6.67;;;18.30;99.90;;;;;;5069413;28;20466;-68
2023/08/19 04:04:58;;;;;;;7.20;6.60;;;18.30;99.90;;;;;;5069502;28;20446;-69
2023/08/19 04:07:25;;;;;;;7.20;6.60;;;18.30;99.90;;;;;;5068677;28;20538;-68
2023/08/19 04:09:53;;;;;;;7.27;6.67;;;18.30;99.90;;;;;;5069579;28;20449;-68
2023/08/19 04:12:20;;;;;;;7.70;7.00;;;18.30;99.90;;;;;;5069670;28;20470;-69
2023/08/19 04:14:47;;;;;;;8.90;8.20;;;18.30;99.90;;;;;;5069444;28;20890;-68
2023/08/19 04:17:15;;;;;;;7.30;6.70;;;18.20;99.90;;;;;;5068378;28;20491;-68
2023/08/19 04:19:42;;;;;;;8.47;7.87;;;18.20;99.90;;;;;;5068123;28;20534;-69
2023/08/19 04:22:10;;;;;;;7.10;6.50;;;18.20;99.90;;;;;;5069089;28;20483;-68
2023/08/19 04:24:37;;;;;;;7.77;7.07;;;18.20;99.90;;;;;;5069082;28;20447;-68
2023/08/19 04:27:04;;;;;;;9.80;7.50;;;18.20;99.90;;;;;;5067878;28;20454;-68
2023/08/19 04:29:33;;;;;;;7.10;6.60;;;18.20;99.90;;;;;;5068790;28;20452;-68
2023/08/19 04:32:00;;;;;;;8.30;7.33;;;18.20;99.90;;;;;;5068571;28;20591;-68
2023/08/19 04:34:29;;;;;;;7.30;6.70;;;18.20;99.90;;;;;;5068993;28;20545;-69
2023/08/19 04:36:56;;;;;;;7.73;7.03;;;18.20;99.90;;;;;;5068208;28;20486;-68
2023/08/19 04:39:23;;;;;;;8.10;7.30;;;18.20;99.90;;;;;;5068908;28;20814;-69
2023/08/19 04:41:50;;;;;;;9.07;6.80;;;18.20;99.90;;;;;;5068518;28;20477;-68
2023/08/19 04:44:18;;;;;;;8.20;7.33;;;18.10;99.90;;;;;;5068542;28;20451;-69
2023/08/19 04:46:44;;;;;;;7.30;6.67;;;18.20;99.90;;;;;;5067561;28;20457;-68
2023/08/19 04:49:12;;;;;;;7.13;6.53;;;18.20;99.90;;;;;;5068650;28;20457;-68
2023/08/19 04:51:40;;;;;;;8.00;7.40;;;18.20;99.90;;;;;;5068453;28;20549;-68
2023/08/19 04:54:07;;;;;;;7.93;6.70;;;18.20;99.90;;;;;;5068420;28;20450;-68
2023/08/19 04:56:34;;;;;;;7.40;6.90;;;18.20;99.90;;;;;;5067668;28;21114;-68
2023/08/19 04:59:01;;;;;;;7.43;6.83;;;18.20;99.90;;;;;;5068199;28;20449;-68
2023/08/19 05:01:28;;;;;;;7.03;6.43;;;18.20;99.90;;;;;;5068028;28;21023;-68
2023/08/19 05:03:55;;;;;;;8.97;7.03;;;18.20;99.90;;;;;;5068580;28;20462;-68
2023/08/19 05:06:22;;;;;;;6.97;6.37;;;18.30;99.90;;;;;;5067436;28;20543;-68
2023/08/19 05:08:50;;;;;;;8.27;7.47;;;18.20;99.90;;;;;;5068264;28;20569;-68
2023/08/19 05:11:17;;;;;;;10.00;7.43;;;18.30;99.90;;;;;;5068308;28;21125;-69
2023/08/19 05:13:44;;;;;;;8.00;7.20;;;18.20;99.90;;;;;;5067897;28;20476;-68
2023/08/19 05:16:11;;;;;;;7.20;6.60;;;18.20;99.90;;;;;;5067418;28;20490;-68
2023/08/19 05:18:38;;;;;;;8.00;7.37;;;18.30;99.90;;;;;;5066945;28;20539;-68
2023/08/19 05:21:05;;;;;;;9.50;8.47;;;18.30;99.90;;;;;;5068212;28;20455;-68
2023/08/19 05:23:31;;;;;;;13.73;8.37;;;18.30;99.90;;;;;;5067753;28;20579;-68
2023/08/19 05:26:00;;;;;;;7.80;7.07;;;18.30;99.90;;;;;;5067107;28;20449;-68
2023/08/19 05:28:26;;;;;;;8.20;7.10;;;18.40;99.90;;;;;;5068224;28;20443;-68
2023/08/19 05:30:53;;;;;;;8.30;7.00;;;18.40;99.90;;;;;;5067961;28;20461;-68
2023/08/19 05:33:20;;;;;;;8.40;7.20;;;18.40;99.90;;;;;;5068073;28;20475;-69
2023/08/19 05:35:47;;;;;;;9.50;7.97;;;18.40;99.90;;;;;;5067824;28;20457;-68
2023/08/19 05:38:14;;;;;;;8.10;7.40;;;18.50;99.90;;;;;;5067252;28;20500;-68
2023/08/19 05:40:40;;;;;;;10.70;7.50;;;18.50;99.90;;;;;;5067898;28;20440;-68
2023/08/19 05:43:09;;;;;;;12.00;7.03;;;18.50;99.90;;;;;;5067827;28;20558;-68
2023/08/19 05:45:35;;;;;;;7.63;7.00;;;18.60;99.90;;;;;;5067964;28;20726;-68
2023/08/19 05:48:03;;;;;;;8.60;7.40;;;18.60;99.90;;;;;;5067049;28;20509;-68
2023/08/19 05:50:30;;;;;;;10.43;8.13;;;18.70;99.90;;;;;;5067636;28;20534;-68
2023/08/19 05:52:57;;;;;;;10.67;8.83;;;18.80;99.90;;;;;;5067416;28;20477;-69
2023/08/19 05:55:24;;;;;;;8.17;7.30;;;18.80;99.90;;;;;;5067712;28;20458;-68
2023/08/19 05:57:50;;;;;;;10.73;8.10;;;19.00;99.90;;;;;;5066915;28;20493;-68
2023/08/19 06:00:19;;;;;;;9.97;8.97;;;19.10;99.90;;;;;;5067458;28;20811;-68
2023/08/19 06:02:46;;;;;;;7.40;6.70;;;19.20;99.90;;;;;;5067454;28;20474;-68
2023/08/19 06:05:12;;;;;;;7.20;6.60;;;19.40;99.90;;;;;;5067819;28;20836;-68
2023/08/19 06:07:39;;;;;;;7.37;6.20;;;19.60;99.90;;;;;;5066856;28;20451;-68
2023/08/19 06:10:07;;;;;;;8.40;7.53;;;19.70;99.90;;;;;;5067668;28;20451;-68
2023/08/19 06:12:34;;;;;;;8.43;7.63;;;19.90;99.90;;;;;;5067261;28;20478;-68
2023/08/19 06:15:00;;;;;;;8.77;7.83;;;20.10;99.90;;;;;;5067465;28;20454;-68
2023/08/19 06:17:29;;;;;;;8.40;7.40;;;20.30;99.90;;;;;;5065833;28;20498;-68
2023/08/19 06:19:55;;;;;;;7.77;7.00;;;20.50;99.90;;;;;;5070198;28;20953;-68
2023/08/19 06:22:22;;;;;;;7.27;6.67;;;20.60;99.90;;;;;;5071271;28;20534;-68
2023/08/19 06:24:49;;;;;;;11.77;7.47;;;20.80;99.90;;;;;;5071300;28;20455;-69
2023/08/19 06:27:16;;;;;;;10.10;7.80;;;21.00;99.90;;;;;;5073330;28;20524;-68
2023/08/19 06:29:43;;;;;;;11.63;9.07;;;21.20;99.90;;;;;;5091529;28;20456;-69
2023/08/19 06:32:11;;;;;;;14.40;9.87;;;21.40;99.90;;;;;;5091442;28;20932;-69
2023/08/19 06:34:40;;;;;;;15.43;9.40;;;21.50;99.90;;;;;;5091438;28;20538;-69
2023/08/19 06:37:11;;;;;;;9.50;8.50;;;21.70;99.90;;;;;;5090527;28;20520;-69
2023/08/19 06:39:41;;;;;;;13.80;8.30;;;21.90;99.90;;;;;;5091306;28;20864;-68
2023/08/19 06:42:09;;;;;;;8.40;7.40;;;22.00;99.90;;;;;;5090004;28;20466;-69
2023/08/19 06:44:39;;;;;;;10.83;7.23;;;22.30;99.90;;;;;;5090832;28;20549;-68
2023/08/19 06:47:10;;;;;;;11.13;8.03;;;22.40;99.90;;;;;;5089417;28;20442;-69
2023/08/19 06:49:39;;;;;;;8.37;7.57;;;22.60;99.90;;;;;;5090263;28;20459;-69
2023/08/19 06:52:06;;;;;;;8.53;7.70;;;22.80;99.90;;;;;;5090954;28;21054;-69
2023/08/19 06:54:34;;;;;;;10.20;7.20;;;22.90;99.90;;;;;;5090911;28;21025;-69
2023/08/19 06:57:07;;;;;;;10.93;8.37;;;23.10;99.90;;;;;;5090281;28;20490;-69
2023/08/19 06:59:38;;;;;;;10.13;9.13;;;23.30;99.90;;;;;;5090904;28;20806;-69
2023/08/19 07:02:06;;;;;;;7.80;7.20;;;23.50;99.90;;;;;;5090575;28;21051;-69
2023/08/19 07:04:35;;;;;;;9.73;8.83;;;23.60;99.90;;;;;;5090870;28;20525;-68
2023/08/19 07:07:05;;;;;;;9.00;8.13;;;23.80;99.90;;;;;;5090218;28;20450;-69
2023/08/19 07:09:33;;;;;;;10.03;8.30;;;23.90;99.90;;;;;;5091043;28;20471;-69
2023/08/19 07:12:01;;;;;;;8.00;7.30;;;24.10;99.90;;;;;;5090499;28;20503;-69
2023/08/19 07:14:29;;;;;;;8.80;7.10;;;24.20;99.90;;;;;;5090691;28;20451;-69
2023/08/19 07:17:00;;;;;;;12.00;7.80;;;24.20;99.90;;;;;;5088558;28;20494;-69
2023/08/19 07:19:31;;;;;;;8.47;7.67;;;24.10;99.90;;;;;;5090441;28;20443;-69
2023/08/19 07:21:59;;;;;;;8.50;7.53;;;24.10;99.90;;;;;;5070418;28;21038;-69
2023/08/19 07:24:27;;;;;;;8.20;7.50;;;24.10;99.90;;;;;;5085146;28;20459;-69
2023/08/19 07:26:54;;;;;;;10.40;7.87;;;24.10;99.90;;;;;;5081214;28;20522;-69
2023/08/19 07:29:22;;;;;;;8.60;7.20;;;24.20;99.90;;;;;;5090047;28;20558;-69
2023/08/19 07:31:49;;;;;;;6.87;6.37;;;24.30;99.90;;;;;;5090053;28;20480;-69
2023/08/19 07:34:16;;;;;;;7.03;6.40;;;24.50;99.90;;;;;;5090091;28;20452;-69
2023/08/19 07:36:43;;;;;;;7.30;6.80;;;24.60;99.90;;;;;;5089322;28;20458;-69
2023/08/19 07:39:10;;;;;;;7.60;7.00;;;24.80;99.90;;;;;;5089345;28;20453;-69
2023/08/19 07:41:39;;;;;;;8.50;7.90;;;25.00;99.90;;;;;;5087437;28;20535;-69
2023/08/19 07:44:06;;;;;;;7.37;6.60;;;25.20;99.90;;;;;;5089296;28;20457;-69
2023/08/19 07:46:33;;;;;;;7.03;6.53;;;25.30;99.90;;;;;;5088502;28;20451;-69
2023/08/19 07:49:00;;;;;;;7.13;6.43;;;25.50;99.90;;;;;;5085419;28;20970;-69
2023/08/19 07:51:27;;;;;;;8.10;7.27;;;25.60;99.90;;;;;;5081603;28;20451;-69
2023/08/19 07:53:53;;;;;;;6.80;6.20;;;25.70;99.90;;;;;;5084851;28;20451;-69
2023/08/19 07:56:20;;;;;;;11.00;10.10;;;25.90;99.90;;;;;;5088562;28;20446;-70
2023/08/19 07:58:48;;;;;;;7.10;6.60;;;26.00;99.90;;;;;;5088565;28;21204;-69
2023/08/19 08:01:16;;;;;;;7.37;6.80;;;26.10;99.90;;;;;;5082775;28;20449;-69
2023/08/19 08:03:42;;;;;;;7.17;6.57;;;26.30;99.90;;;;;;5077986;28;20544;-70
2023/08/19 08:06:10;;;;;;;6.40;6.00;;;26.40;99.90;;;;;;5081661;28;20439;-69
2023/08/19 08:08:37;;;;;;;7.17;6.30;;;26.50;99.90;;;;;;5080000;28;20455;-70
2023/08/19 08:11:04;;;;;;;6.73;6.23;;;26.60;99.90;;;;;;5087777;28;20449;-71
2023/08/19 08:13:31;;;;;;;6.57;6.10;;;26.60;99.90;;;;;;5087848;28;20476;-70
2023/08/19 08:16:00;;;;;;;7.33;6.67;;;26.70;99.90;;;;;;5087843;28;20449;-70
2023/08/19 08:18:27;;;;;;;8.43;6.60;;;26.80;99.90;;;;;;5085642;28;20499;-70
2023/08/19 08:20:54;;;;;;;6.77;6.27;;;26.90;99.90;;;;;;5082426;28;20492;-70
2023/08/19 08:23:21;;;;;;;6.33;5.80;;;27.00;99.90;;;;;;5086108;28;20472;-70
2023/08/19 08:25:48;;;;;;;7.23;6.60;;;27.10;99.90;;;;;;5078437;28;21229;-70
2023/08/19 08:28:14;;;;;;;6.53;6.03;;;27.10;99.90;;;;;;5087071;28;20973;-69
2023/08/19 08:30:41;;;;;;;6.50;6.10;;;27.20;99.90;;;;;;5086181;28;20463;-69
2023/08/19 08:33:09;;;;;;;7.10;6.40;;;27.20;99.90;;;;;;5085535;28;20566;-71
2023/08/19 08:35:36;;;;;;;7.50;6.90;;;27.30;99.90;;;;;;5087606;28;20898;-70
2023/08/19 08:38:04;;;;;;;7.00;6.40;;;27.30;99.90;;;;;;5086250;28;20493;-70
2023/08/19 08:40:31;;;;;;;7.17;6.67;;;27.40;99.90;;;;;;5087462;28;20506;-67
2023/08/19 08:42:59;;;;;;;5.70;5.20;;;27.40;99.90;;;;;;5087080;28;20473;-67
2023/08/19 08:45:28;;;;;;;6.23;5.73;;;27.50;99.90;;;;;;5087138;28;20463;-67
2023/08/19 08:47:55;;;;;;;6.87;6.27;;;27.60;99.90;;;;;;5083147;28;20452;-67
2023/08/19 08:50:24;;;;;;;7.40;6.60;;;27.60;99.90;;;;;;5086968;28;20489;-67
2023/08/19 08:52:52;;;;;;;6.07;5.57;;;27.70;99.90;;;;;;5087579;28;20564;-68
2023/08/19 08:55:19;;;;;;;5.67;5.37;;;27.80;99.90;;;;;;5087345;28;20822;-67
2023/08/19 08:57:46;;;;;;;6.67;6.17;;;27.80;99.90;;;;;;5086991;28;20576;-66
2023/08/19 09:00:14;;;;;;;6.60;6.03;;;27.90;99.90;;;;;;5072640;28;20976;-67
2023/08/19 09:02:41;;;;;;;6.30;5.80;;;28.00;99.90;;;;;;5067307;28;20506;-67
2023/08/19 09:05:09;;;;;;;6.33;5.90;;;28.10;99.90;;;;;;5084185;28;20643;-67
2023/08/19 09:07:40;;;;;;;6.90;6.40;;;28.20;99.90;;;;;;5067837;28;20881;-66
2023/08/19 09:10:13;;;;;;;5.87;5.47;;;28.40;99.90;;;;;;5066489;28;20873;-66
2023/08/19 09:12:42;;;;;;;6.67;6.00;;;28.50;99.90;;;;;;5067224;28;20482;-67
2023/08/19 09:15:11;;;;;;;6.33;5.80;;;28.60;99.90;;;;;;5066761;28;20455;-67
2023/08/19 09:17:39;;;;;;;7.73;7.17;;;28.70;99.90;;;;;;5066926;28;20491;-66
2023/08/19 09:20:08;;;;;;;6.53;6.03;;;28.80;99.90;;;;;;5086825;28;20943;-66
2023/08/19 09:22:42;;;;;;;6.10;5.70;;;28.90;99.90;;;;;;5069372;28;20463;-66
2023/08/19 09:25:14;;;;;;;6.83;6.23;;;29.00;99.90;;;;;;5066802;28;21043;-68
2023/08/19 09:27:41;;;;;;;8.00;6.50;;;29.10;99.90;;;;;;5065902;28;20443;-69
2023/08/19 09:30:08;;;;;;;6.67;6.27;;;29.20;99.90;;;;;;5066754;28;20874;-68
2023/08/19 09:32:36;;;;;;;6.60;6.10;;;29.30;99.90;;;;;;5069728;28;20487;-68
2023/08/19 09:35:05;;;;;;;6.77;6.10;;;29.30;99.90;;;;;;5085080;28;20483;-69
2023/08/19 09:37:33;;;;;;;7.63;7.03;;;29.40;99.90;;;;;;5085829;28;20443;-68
2023/08/19 09:40:04;;;;;;;6.50;5.90;;;29.50;99.90;;;;;;5087005;28;20515;-68
2023/08/19 09:42:31;;;;;;;5.90;5.40;;;29.60;99.70;;;;;;5086740;28;20473;-69
2023/08/19 09:44:58;;;;;;;5.77;5.27;;;29.70;97.80;;;;;;5086686;28;20446;-69
2023/08/19 09:47:24;;;;;;;9.40;6.60;;;29.80;99.30;;;;;;5085187;28;20560;-68
2023/08/19 09:49:53;;;;;;;7.93;5.33;;;29.90;99.90;;;;;;5086580;28;20449;-68
2023/08/19 09:52:19;;;;;;;6.77;5.90;;;29.90;99.60;;;;;;5086345;28;20548;-68
2023/08/19 09:54:53;;;;;;;7.03;6.33;;;30.00;98.80;;;;;;5089301;28;20449;-68
2023/08/19 09:57:32;;;;;;;5.37;4.97;;;30.10;99.50;;;;;;5090016;28;20818;-68
2023/08/19 09:59:59;;;;;;;5.63;5.13;;;30.10;98.30;;;;;;5090748;28;20447;-68
2023/08/19 10:02:26;;;;;;;5.90;5.30;;;30.20;96.20;;;;;;5090945;28;20473;-68
2023/08/19 10:04:53;;;;;;;5.50;5.20;;;30.30;97.00;;;;;;5090616;28;20531;-69
2023/08/19 10:07:25;;;;;;;6.40;5.90;;;30.30;97.70;;;;;;5089340;28;20454;-67
2023/08/19 10:09:54;;;;;;;5.10;4.80;;;30.40;97.20;;;;;;5089951;28;20521;-67
2023/08/19 10:12:24;;;;;;;5.10;4.70;;;30.40;96.30;;;;;;5090682;28;20459;-67
2023/08/19 10:14:54;;;;;;;6.20;5.80;;;30.50;95.50;;;;;;5090376;28;20472;-68
2023/08/19 10:17:22;;;;;;;5.57;5.07;;;30.60;96.80;;;;;;5090167;28;20445;-68
2023/08/19 10:19:56;;;;;;;6.27;5.00;;;30.70;98.20;;;;;;5090781;28;20874;-69
2023/08/19 10:22:23;;;;;;;7.33;5.30;;;30.70;96.40;;;;;;5090469;28;21084;-68
2023/08/19 10:24:54;;;;;;;5.77;5.47;;;30.70;96.60;;;;;;5090293;28;20539;-68
2023/08/19 10:27:22;;;;;;;5.03;4.60;;;30.80;96.60;;;;;;5089761;28;20824;-68
2023/08/19 10:29:56;;;;;;;6.13;5.13;;;30.90;95.90;;;;;;5090540;28;20449;-68
2023/08/19 10:32:28;;;;;;;5.00;4.70;;;31.00;96.90;;;;;;5090378;28;20559;-68
2023/08/19 10:35:08;;;;;;;5.20;4.70;;;31.00;95.20;;;;;;5090323;28;20527;-68
2023/08/19 10:37:36;;;;;;;5.43;4.80;;;31.10;94.40;;;;;;5074488;28;20447;-68
2023/08/19 10:40:08;;;;;;;5.00;4.60;;;31.20;95.10;;;;;;5090731;28;20465;-68
2023/08/19 10:42:36;;;;;;;5.73;5.23;;;31.20;96.70;;;;;;5090225;28;20988;-68
2023/08/19 10:45:05;;;;;;;5.13;4.73;;;31.30;97.10;;;;;;5090105;28;20453;-68
2023/08/19 10:47:33;;;;;;;4.47;4.13;;;31.30;95.00;;;;;;5089414;28;20809;-68
2023/08/19 10:50:04;;;;;;;4.80;4.40;;;31.40;96.20;;;;;;5090102;28;21046;-68
2023/08/19 10:52:31;;;;;;;5.80;4.80;;;31.50;94.50;;;;;;5090027;28;21004;-68
2023/08/19 10:54:59;;;;;;;8.13;4.37;;;31.60;94.30;;;;;;5089979;28;20451;-69
2023/08/19 10:57:27;;;;;;;8.60;4.90;;;31.80;92.50;;;;;;5072761;28;20918;-68
2023/08/19 10:59:57;;;;;;;5.53;4.90;;;31.80;93.70;;;;;;5090011;28;21074;-68
2023/08/19 11:02:24;;;;;;;5.00;4.60;;;31.90;92.40;;;;;;5089837;28;20478;-69
2023/08/19 11:04:52;;;;;;;4.90;4.50;;;32.00;93.30;;;;;;5089734;28;20450;-68
2023/08/19 11:07:19;;;;;;;6.80;5.00;;;32.00;91.70;;;;;;5089036;28;20475;-68
2023/08/19 11:09:47;;;;;;;4.63;4.23;;;32.10;90.80;;;;;;5089029;28;20614;-68
2023/08/19 11:12:17;;;;;;;4.50;4.13;;;32.10;92.70;;;;;;5089171;28;20473;-68
2023/08/19 11:14:47;;;;;;;4.50;4.10;;;32.20;92.50;;;;;;5089892;28;20535;-68
2023/08/19 11:17:16;;;;;;;6.40;4.77;;;32.20;91.60;;;;;;5088710;28;20448;-68
2023/08/19 11:19:43;;;;;;;5.77;4.73;;;32.30;90.60;;;;;;5089009;28;20572;-68
2023/08/19 11:22:13;;;;;;;4.33;3.93;;;32.40;92.30;;;;;;5088138;28;20459;-68
2023/08/19 11:24:40;;;;;;;5.93;4.97;;;32.50;92.50;;;;;;5088101;28;20446;-68
2023/08/19 11:27:08;;;;;;;4.77;4.47;;;32.50;90.80;;;;;;5088580;28;20446;-68
2023/08/19 11:29:37;;;;;;;4.80;4.40;;;32.60;90.30;;;;;;5089545;28;20452;-68
2023/08/19 11:32:05;;;;;;;4.60;4.20;;;32.70;91.00;;;;;;5088087;28;21000;-68
2023/08/19 11:34:33;;;;;;;4.20;3.80;;;32.70;84.60;;;;;;5088547;28;20453;-68
2023/08/19 11:37:04;;;;;;;5.57;4.70;;;32.90;85.60;;;;;;5087926;28;20461;-68
2023/08/19 11:39:32;;;;;;;3.80;3.50;;;32.90;87.90;;;;;;5088924;28;20600;-68
2023/08/19 11:41:59;;;;;;;4.37;4.07;;;33.00;85.30;;;;;;5087201;28;20474;-68
2023/08/19 11:44:26;;;;;;;4.80;4.47;;;33.10;86.60;;;;;;5087602;28;20450;-68
2023/08/19 11:46:55;;;;;;;4.20;3.53;;;33.20;84.00;;;;;;5084286;28;20952;-68
2023/08/19 11:49:24;;;;;;;4.30;4.00;;;33.30;87.50;;;;;;5088646;28;20431;-68
2023/08/19 11:51:52;;;;;;;5.50;5.00;;;33.50;88.00;;;;;;5087283;28;20505;-68
2023/08/19 11:54:19;;;;;;;5.90;4.70;;;33.50;81.20;;;;;;5087879;28;20455;-68
2023/08/19 11:56:48;;;;;;;3.93;3.67;;;33.70;81.80;;;;;;5087865;28;20456;-69
2023/08/19 11:59:15;;;;;;;5.20;3.73;;;33.80;82.90;;;;;;5087636;28;20482;-68
2023/08/19 12:01:42;;;;;;;4.60;3.53;;;34.00;81.50;;;;;;5088182;28;20474;-68
2023/08/19 12:04:15;;;;;;;4.50;4.10;;;34.10;81.00;;;;;;5088897;28;20487;-68
2023/08/19 12:06:42;;;;;;;4.53;4.13;;;34.30;82.70;;;;;;5087971;28;20463;-68
2023/08/19 12:09:10;;;;;;;8.30;5.23;;;34.30;80.70;;;;;;5087420;28;20445;-68
2023/08/19 12:11:38;;;;;;;6.90;4.43;;;34.50;81.80;;;;;;5088506;28;20528;-68
2023/08/19 12:14:06;;;;;;;4.93;4.53;;;34.60;80.80;;;;;;5088466;28;20829;-68
2023/08/19 12:16:32;;;;;;;4.77;4.37;;;34.70;76.50;;;;;;5086213;28;20450;-68
2023/08/19 12:18:59;;;;;;;4.67;4.17;;;34.90;75.80;;;;;;5088403;28;20486;-68
2023/08/19 12:21:27;;;;;;;5.27;3.80;;;35.00;72.90;;;;;;5088555;28;20457;-68
2023/08/19 12:23:54;;;;;;;6.33;4.70;;;35.10;76.40;;;;;;5088721;28;20443;-68
2023/08/19 12:26:22;;;;;;;5.70;4.10;;;35.30;77.30;;;;;;5087670;28;20447;-69
2023/08/19 12:28:49;;;;;;;6.47;4.80;;;35.40;72.50;;;;;;5088520;28;20527;-68
2023/08/19 12:31:16;;;;;;;6.43;4.33;;;35.30;71.60;;;;;;5088546;28;20541;-68
2023/08/19 12:33:43;;;;;;;4.43;3.73;;;35.40;72.30;;;;;;5088487;28;20470;-68
2023/08/19 12:36:10;;;;;;;5.90;4.63;;;35.50;74.30;;;;;;5087509;28;20450;-68
2023/08/19 12:38:37;;;;;;;4.37;3.97;;;35.50;74.10;;;;;;5088288;28;21037;-68
2023/08/19 12:41:05;;;;;;;3.97;3.67;;;35.70;72.30;;;;;;5087895;28;20469;-68
2023/08/19 12:43:33;;;;;;;4.63;4.33;;;35.80;69.50;;;;;;5087873;28;20474;-68
2023/08/19 12:46:00;;;;;;;3.97;3.67;;;35.90;72.60;;;;;;5087311;28;20445;-68
2023/08/19 12:48:27;;;;;;;4.80;4.40;;;36.00;71.50;;;;;;5087480;28;20447;-68